sensor_id;sensor_type;location;lat;lon;timestamp;temperature;humidity
26954;DHT22;14508;50.924;11.600;2022-10-31T00:00:30;9.80;99.90
26954;DHT22;14508;50.924;11.600;2022-10-31T00:02:57;9.80;99.90
26954;DHT22;14508;50.924;11.600;2022-10-31T00:05:24;9.70;99.90
26954;DHT22;14508;50.924;11.600;2022-10-31T00:07:53;9.70;99.90
26954;DHT22;14508;50.924;11.600;2022-10-31T00:10:20;9.70;99.90
26954;DHT22;14508;50.924;11.600;2022-10-31T00:12:47;9.70;99.90
26954;DHT22;14508;50.924;11.600;2022-10-31T00:15:13;9.60;99.90
26954;DHT22;14508;50.924;11.600;2022-10-31T00:17:40;9.60;99.90
26954;DHT22;14508;50.924;11.600;2022-10-31T00:20:08;9.60;99.90
26954;DHT22;14508;50.924;11.600;2022-10-31T00:22:35;9.60;99.90
26954;DHT22;14508;50.924;11.600;2022-10-31T00:25:03;9.60;99.90
26954;DHT22;14508;50.924;11.600;2022-10-31T00:27:30;9.50;99.90
26954;DHT22;14508;50.924;11.600;2022-10-31T00:29:57;9.50;99.90
26954;DHT22;14508;50.924;11.600;2022-10-31T00:32:24;9.50;99.90
26954;DHT22;14508;50.924;11.600;2022-10-31T00:34:51;9.50;99.90
26954;DHT22;14508;50.924;11.600;2022-10-31T00:37:18;9.50;99.90
26954;DHT22;14508;50.924;11.600;2022-10-31T00:39:45;9.40;99.90
26954;DHT22;14508;50.924;11.600;2022-10-31T00:42:16;9.40;99.90
26954;DHT22;14508;50.924;11.600;2022-10-31T00:44:44;9.40;99.90
26954;DHT22;14508;50.924;11.600;2022-10-31T00:47:11;9.40;99.90
26954;DHT22;14508;50.924;11.600;2022-10-31T00:49:37;9.30;99.90
26954;DHT22;14508;50.924;11.600;2022-10-31T00:52:04;9.30;99.90
26954;DHT22;14508;50.924;11.600;2022-10-31T00:54:31;9.30;99.90
26954;DHT22;14508;50.924;11.600;2022-10-31T00:56:58;9.30;99.90
26954;DHT22;14508;50.924;11.600;2022-10-31T00:59:26;9.30;99.90
26954;DHT22;14508;50.924;11.600;2022-10-31T01:01:53;9.30;99.90
26954;DHT22;14508;50.924;11.600;2022-10-31T01:04:20;9.20;99.90
26954;DHT22;14508;50.924;11.600;2022-10-31T01:06:48;9.20;99.90
26954;DHT22;14508;50.924;11.600;2022-10-31T01:09:15;9.20;99.90
26954;DHT22;14508;50.924;11.600;2022-10-31T01:11:42;9.20;99.90
26954;DHT22;14508;50.924;11.600;2022-10-31T01:14:09;9.10;99.90
26954;DHT22;14508;50.924;11.600;2022-10-31T01:16:37;9.10;99.90
26954;DHT22;14508;50.924;11.600;2022-10-31T01:19:04;9.10;99.90
26954;DHT22;14508;50.924;11.600;2022-10-31T01:21:31;9.10;99.90
26954;DHT22;14508;50.924;11.600;2022-10-31T01:23:58;9.00;99.90
26954;DHT22;14508;50.924;11.600;2022-10-31T01:26:29;9.00;99.90
26954;DHT22;14508;50.924;11.600;2022-10-31T01:28:58;9.00;99.90
26954;DHT22;14508;50.924;11.600;2022-10-31T01:31:28;9.00;99.90
26954;DHT22;14508;50.924;11.600;2022-10-31T01:33:57;9.00;99.90
26954;DHT22;14508;50.924;11.600;2022-10-31T01:36:26;8.90;99.90
26954;DHT22;14508;50.924;11.600;2022-10-31T01:38:55;8.80;99.90
26954;DHT22;14508;50.924;11.600;2022-10-31T01:41:25;8.90;99.90
26954;DHT22;14508;50.924;11.600;2022-10-31T01:43:54;8.90;99.90
26954;DHT22;14508;50.924;11.600;2022-10-31T01:46:24;8.80;99.90
26954;DHT22;14508;50.924;11.600;2022-10-31T01:48:53;8.80;99.90
26954;DHT22;14508;50.924;11.600;2022-10-31T01:51:25;8.80;99.90
26954;DHT22;14508;50.924;11.600;2022-10-31T01:53:57;8.80;99.90
26954;DHT22;14508;50.924;11.600;2022-10-31T01:56:25;8.80;99.90
26954;DHT22;14508;50.924;11.600;2022-10-31T01:58:53;8.70;99.90
26954;DHT22;14508;50.924;11.600;2022-10-31T02:01:21;8.70;99.90
26954;DHT22;14508;50.924;11.600;2022-10-31T02:03:48;8.70;99.90
26954;DHT22;14508;50.924;11.600;2022-10-31T02:06:25;8.70;99.90
26954;DHT22;14508;50.924;11.600;2022-10-31T02:08:53;8.70;99.90
26954;DHT22;14508;50.924;11.600;2022-10-31T02:11:21;8.70;99.90
26954;DHT22;14508;50.924;11.600;2022-10-31T02:13:48;8.80;99.90
26954;DHT22;14508;50.924;11.600;2022-10-31T02:16:15;8.80;99.90
26954;DHT22;14508;50.924;11.600;2022-10-31T02:18:43;8.80;99.90
26954;DHT22;14508;50.924;11.600;2022-10-31T02:21:15;8.80;99.90
26954;DHT22;14508;50.924;11.600;2022-10-31T02:23:59;8.80;99.90
26954;DHT22;14508;50.924;11.600;2022-10-31T02:26:49;8.70;99.90
26954;DHT22;14508;50.924;11.600;2022-10-31T02:29:42;8.70;99.90
26954;DHT22;14508;50.924;11.600;2022-10-31T02:32:21;8.70;99.90
26954;DHT22;14508;50.924;11.600;2022-10-31T02:34:57;8.60;99.90
26954;DHT22;14508;50.924;11.600;2022-10-31T02:37:32;8.60;99.90
26954;DHT22;14508;50.924;11.600;2022-10-31T02:40:07;8.60;99.90
26954;DHT22;14508;50.924;11.600;2022-10-31T02:43:04;8.60;99.90
26954;DHT22;14508;50.924;11.600;2022-10-31T02:45:37;8.60;99.90
26954;DHT22;14508;50.924;11.600;2022-10-31T02:48:10;8.60;99.90
26954;DHT22;14508;50.924;11.600;2022-10-31T02:50:45;8.60;99.90
26954;DHT22;14508;50.924;11.600;2022-10-31T02:53:14;8.60;99.90
26954;DHT22;14508;50.924;11.600;2022-10-31T02:55:47;8.60;99.90
26954;DHT22;14508;50.924;11.600;2022-10-31T02:58:19;8.50;99.90
26954;DHT22;14508;50.924;11.600;2022-10-31T03:03:42;8.50;99.90
26954;DHT22;14508;50.924;11.600;2022-10-31T03:06:18;8.50;99.90
26954;DHT22;14508;50.924;11.600;2022-10-31T03:08:53;8.50;99.90
26954;DHT22;14508;50.924;11.600;2022-10-31T03:11:24;8.50;99.90
26954;DHT22;14508;50.924;11.600;2022-10-31T03:13:59;8.50;99.90
26954;DHT22;14508;50.924;11.600;2022-10-31T03:16:32;8.50;99.90
26954;DHT22;14508;50.924;11.600;2022-10-31T03:19:07;8.40;99.90
26954;DHT22;14508;50.924;11.600;2022-10-31T03:21:38;8.40;99.90
26954;DHT22;14508;50.924;11.600;2022-10-31T03:24:10;8.40;99.90
26954;DHT22;14508;50.924;11.600;2022-10-31T03:26:45;8.40;99.90
26954;DHT22;14508;50.924;11.600;2022-10-31T03:29:15;8.30;99.90
26954;DHT22;14508;50.924;11.600;2022-10-31T03:31:46;8.30;99.90
26954;DHT22;14508;50.924;11.600;2022-10-31T03:34:16;8.30;99.90
26954;DHT22;14508;50.924;11.600;2022-10-31T03:36:45;8.30;99.90
26954;DHT22;14508;50.924;11.600;2022-10-31T03:39:16;8.30;99.90
26954;DHT22;14508;50.924;11.600;2022-10-31T03:41:48;8.30;99.90
26954;DHT22;14508;50.924;11.600;2022-10-31T03:44:18;8.30;99.90
26954;DHT22;14508;50.924;11.600;2022-10-31T03:46:54;8.30;99.90
26954;DHT22;14508;50.924;11.600;2022-10-31T03:49:22;8.30;99.90
26954;DHT22;14508;50.924;11.600;2022-10-31T03:51:54;8.30;99.90
26954;DHT22;14508;50.924;11.600;2022-10-31T03:54:25;8.30;99.90
26954;DHT22;14508;50.924;11.600;2022-10-31T03:56:57;8.30;99.90
26954;DHT22;14508;50.924;11.600;2022-10-31T03:59:32;8.30;99.90
26954;DHT22;14508;50.924;11.600;2022-10-31T04:02:03;8.20;99.90
26954;DHT22;14508;50.924;11.600;2022-10-31T04:04:35;8.20;99.90
26954;DHT22;14508;50.924;11.600;2022-10-31T04:07:06;8.10;99.90
26954;DHT22;14508;50.924;11.600;2022-10-31T04:09:37;8.20;99.90
26954;DHT22;14508;50.924;11.600;2022-10-31T04:12:06;8.20;99.90
26954;DHT22;14508;50.924;11.600;2022-10-31T04:14:55;8.10;99.90
26954;DHT22;14508;50.924;11.600;2022-10-31T04:17:24;8.10;99.90
26954;DHT22;14508;50.924;11.600;2022-10-31T04:19:55;8.00;99.90
26954;DHT22;14508;50.924;11.600;2022-10-31T04:22:25;8.00;99.90
26954;DHT22;14508;50.924;11.600;2022-10-31T04:24:52;8.00;99.90
26954;DHT22;14508;50.924;11.600;2022-10-31T04:27:18;8.00;99.90
26954;DHT22;14508;50.924;11.600;2022-10-31T04:29:45;8.00;99.90
26954;DHT22;14508;50.924;11.600;2022-10-31T04:32:12;8.00;99.90
26954;DHT22;14508;50.924;11.600;2022-10-31T04:34:39;8.00;99.90
26954;DHT22;14508;50.924;11.600;2022-10-31T04:37:08;8.00;99.90
26954;DHT22;14508;50.924;11.600;2022-10-31T04:39:34;7.90;99.90
26954;DHT22;14508;50.924;11.600;2022-10-31T04:42:21;8.00;99.90
26954;DHT22;14508;50.924;11.600;2022-10-31T04:44:48;7.90;99.90
26954;DHT22;14508;50.924;11.600;2022-10-31T04:47:15;7.90;99.90
26954;DHT22;14508;50.924;11.600;2022-10-31T04:49:42;7.90;99.90
26954;DHT22;14508;50.924;11.600;2022-10-31T04:52:13;7.90;99.90
26954;DHT22;14508;50.924;11.600;2022-10-31T04:54:40;7.90;99.90
26954;DHT22;14508;50.924;11.600;2022-10-31T04:57:06;7.90;99.90
26954;DHT22;14508;50.924;11.600;2022-10-31T04:59:33;7.90;99.90
26954;DHT22;14508;50.924;11.600;2022-10-31T05:02:02;7.80;99.90
26954;DHT22;14508;50.924;11.600;2022-10-31T05:04:42;7.80;99.90
26954;DHT22;14508;50.924;11.600;2022-10-31T05:07:09;7.80;99.90
26954;DHT22;14508;50.924;11.600;2022-10-31T05:09:37;7.80;99.90
26954;DHT22;14508;50.924;11.600;2022-10-31T05:12:04;7.80;99.90
26954;DHT22;14508;50.924;11.600;2022-10-31T05:14:50;7.80;99.90
26954;DHT22;14508;50.924;11.600;2022-10-31T05:17:35;7.80;99.90
26954;DHT22;14508;50.924;11.600;2022-10-31T05:20:25;7.80;99.90
26954;DHT22;14508;50.924;11.600;2022-10-31T05:23:06;7.70;99.90
26954;DHT22;14508;50.924;11.600;2022-10-31T05:25:34;7.70;99.90
26954;DHT22;14508;50.924;11.600;2022-10-31T05:28:03;7.70;99.90
26954;DHT22;14508;50.924;11.600;2022-10-31T05:30:31;7.70;99.90
26954;DHT22;14508;50.924;11.600;2022-10-31T05:32:59;7.70;99.90
26954;DHT22;14508;50.924;11.600;2022-10-31T05:35:46;7.70;99.90
26954;DHT22;14508;50.924;11.600;2022-10-31T05:38:31;7.60;99.90
26954;DHT22;14508;50.924;11.600;2022-10-31T05:41:08;7.60;99.90
26954;DHT22;14508;50.924;11.600;2022-10-31T05:43:36;7.60;99.90
26954;DHT22;14508;50.924;11.600;2022-10-31T05:47:20;7.60;99.90
26954;DHT22;14508;50.924;11.600;2022-10-31T05:50:07;7.60;99.90
26954;DHT22;14508;50.924;11.600;2022-10-31T05:52:37;7.60;99.90
26954;DHT22;14508;50.924;11.600;2022-10-31T05:55:14;7.60;99.90
26954;DHT22;14508;50.924;11.600;2022-10-31T05:57:57;7.60;99.90
26954;DHT22;14508;50.924;11.600;2022-10-31T06:00:25;7.60;99.90
26954;DHT22;14508;50.924;11.600;2022-10-31T06:02:58;7.60;99.90
26954;DHT22;14508;50.924;11.600;2022-10-31T06:05:36;7.70;99.90
26954;DHT22;14508;50.924;11.600;2022-10-31T06:08:02;7.70;99.90
26954;DHT22;14508;50.924;11.600;2022-10-31T06:10:29;7.70;99.90
26954;DHT22;14508;50.924;11.600;2022-10-31T06:12:58;7.60;99.90
26954;DHT22;14508;50.924;11.600;2022-10-31T06:15:47;7.60;99.90
26954;DHT22;14508;50.924;11.600;2022-10-31T06:18:14;7.60;99.90
26954;DHT22;14508;50.924;11.600;2022-10-31T06:20:50;7.60;99.90
26954;DHT22;14508;50.924;11.600;2022-10-31T06:23:17;7.70;99.90
26954;DHT22;14508;50.924;11.600;2022-10-31T06:25:48;7.70;99.90
26954;DHT22;14508;50.924;11.600;2022-10-31T06:28:17;7.70;99.90
26954;DHT22;14508;50.924;11.600;2022-10-31T06:30:59;7.70;99.90
26954;DHT22;14508;50.924;11.600;2022-10-31T06:33:26;7.70;99.90
26954;DHT22;14508;50.924;11.600;2022-10-31T06:35:56;7.70;99.90
26954;DHT22;14508;50.924;11.600;2022-10-31T06:38:25;7.70;99.90
26954;DHT22;14508;50.924;11.600;2022-10-31T06:40:52;7.80;99.90
26954;DHT22;14508;50.924;11.600;2022-10-31T06:43:27;7.80;99.90
26954;DHT22;14508;50.924;11.600;2022-10-31T06:57:37;7.90;99.90
26954;DHT22;14508;50.924;11.600;2022-10-31T07:00:05;8.20;99.90
26954;DHT22;14508;50.924;11.600;2022-10-31T07:02:40;8.20;99.90
26954;DHT22;14508;50.924;11.600;2022-10-31T07:05:07;8.30;99.90
26954;DHT22;14508;50.924;11.600;2022-10-31T07:07:34;8.30;99.90
26954;DHT22;14508;50.924;11.600;2022-10-31T07:10:02;8.40;99.90
26954;DHT22;14508;50.924;11.600;2022-10-31T07:12:47;8.40;99.90
26954;DHT22;14508;50.924;11.600;2022-10-31T07:15:15;8.50;99.90
26954;DHT22;14508;50.924;11.600;2022-10-31T07:17:42;8.60;99.90
26954;DHT22;14508;50.924;11.600;2022-10-31T07:20:10;8.60;99.90
26954;DHT22;14508;50.924;11.600;2022-10-31T07:22:37;8.70;99.90
26954;DHT22;14508;50.924;11.600;2022-10-31T07:25:07;8.80;99.90
26954;DHT22;14508;50.924;11.600;2022-10-31T07:27:55;8.80;99.90
26954;DHT22;14508;50.924;11.600;2022-10-31T07:30:22;8.90;99.90
26954;DHT22;14508;50.924;11.600;2022-10-31T07:32:53;8.90;99.90
26954;DHT22;14508;50.924;11.600;2022-10-31T07:35:23;9.00;99.90
26954;DHT22;14508;50.924;11.600;2022-10-31T07:37:55;9.10;99.90
26954;DHT22;14508;50.924;11.600;2022-10-31T07:40:24;9.20;99.90
26954;DHT22;14508;50.924;11.600;2022-10-31T07:42:52;9.30;99.90
26954;DHT22;14508;50.924;11.600;2022-10-31T07:45:52;9.40;99.90
26954;DHT22;14508;50.924;11.600;2022-10-31T07:48:42;9.50;99.90
26954;DHT22;14508;50.924;11.600;2022-10-31T07:51:27;9.60;99.90
26954;DHT22;14508;50.924;11.600;2022-10-31T07:54:26;9.70;99.90
26954;DHT22;14508;50.924;11.600;2022-10-31T07:56:58;9.70;99.90
26954;DHT22;14508;50.924;11.600;2022-10-31T07:59:25;9.90;99.90
26954;DHT22;14508;50.924;11.600;2022-10-31T08:01:55;9.90;99.90
26954;DHT22;14508;50.924;11.600;2022-10-31T08:04:30;10.00;99.90
26954;DHT22;14508;50.924;11.600;2022-10-31T08:07:23;10.10;99.90
26954;DHT22;14508;50.924;11.600;2022-10-31T08:09:57;10.30;99.90
26954;DHT22;14508;50.924;11.600;2022-10-31T08:12:28;10.30;99.90
26954;DHT22;14508;50.924;11.600;2022-10-31T08:14:55;10.40;99.90
26954;DHT22;14508;50.924;11.600;2022-10-31T08:17:23;10.50;99.90
26954;DHT22;14508;50.924;11.600;2022-10-31T08:19:55;10.60;99.90
26954;DHT22;14508;50.924;11.600;2022-10-31T08:22:28;10.70;99.90
26954;DHT22;14508;50.924;11.600;2022-10-31T08:24:55;10.80;99.90
26954;DHT22;14508;50.924;11.600;2022-10-31T08:27:22;10.90;99.90
26954;DHT22;14508;50.924;11.600;2022-10-31T08:29:49;11.00;99.90
26954;DHT22;14508;50.924;11.600;2022-10-31T08:32:16;11.10;99.90
26954;DHT22;14508;50.924;11.600;2022-10-31T08:34:55;11.20;99.90
26954;DHT22;14508;50.924;11.600;2022-10-31T08:37:52;11.30;99.90
26954;DHT22;14508;50.924;11.600;2022-10-31T08:40:19;11.40;99.90
26954;DHT22;14508;50.924;11.600;2022-10-31T08:42:45;11.50;99.90
26954;DHT22;14508;50.924;11.600;2022-10-31T08:45:12;11.60;99.90
26954;DHT22;14508;50.924;11.600;2022-10-31T08:47:39;11.70;99.90
26954;DHT22;14508;50.924;11.600;2022-10-31T08:50:08;11.80;99.90
26954;DHT22;14508;50.924;11.600;2022-10-31T08:52:35;11.90;99.90
26954;DHT22;14508;50.924;11.600;2022-10-31T08:55:04;12.00;99.90
26954;DHT22;14508;50.924;11.600;2022-10-31T08:57:54;12.10;99.90
26954;DHT22;14508;50.924;11.600;2022-10-31T09:00:22;12.20;99.90
26954;DHT22;14508;50.924;11.600;2022-10-31T09:02:57;12.40;99.90
26954;DHT22;14508;50.924;11.600;2022-10-31T09:05:32;12.40;99.90
26954;DHT22;14508;50.924;11.600;2022-10-31T09:08:01;12.50;99.90
26954;DHT22;14508;50.924;11.600;2022-10-31T09:10:30;12.70;99.90
26954;DHT22;14508;50.924;11.600;2022-10-31T09:12:58;12.70;99.90
26954;DHT22;14508;50.924;11.600;2022-10-31T09:15:48;12.80;99.90
26954;DHT22;14508;50.924;11.600;2022-10-31T09:18:25;12.90;99.90
26954;DHT22;14508;50.924;11.600;2022-10-31T09:20:59;13.10;99.90
26954;DHT22;14508;50.924;11.600;2022-10-31T09:23:30;13.20;99.90
26954;DHT22;14508;50.924;11.600;2022-10-31T09:26:04;13.30;99.90
26954;DHT22;14508;50.924;11.600;2022-10-31T09:28:36;13.40;99.90
26954;DHT22;14508;50.924;11.600;2022-10-31T09:31:09;13.50;99.90
26954;DHT22;14508;50.924;11.600;2022-10-31T09:33:59;13.60;99.90
26954;DHT22;14508;50.924;11.600;2022-10-31T09:36:36;13.70;99.90
26954;DHT22;14508;50.924;11.600;2022-10-31T09:39:07;13.80;99.90
26954;DHT22;14508;50.924;11.600;2022-10-31T09:42:06;13.80;99.90
26954;DHT22;14508;50.924;11.600;2022-10-31T09:44:46;14.00;99.90
26954;DHT22;14508;50.924;11.600;2022-10-31T09:47:32;14.10;99.90
26954;DHT22;14508;50.924;11.600;2022-10-31T09:50:42;14.10;99.90
26954;DHT22;14508;50.924;11.600;2022-10-31T09:53:38;14.20;99.90
26954;DHT22;14508;50.924;11.600;2022-10-31T09:56:11;14.30;99.90
26954;DHT22;14508;50.924;11.600;2022-10-31T09:58:42;14.50;99.90
26954;DHT22;14508;50.924;11.600;2022-10-31T10:01:23;14.60;99.90
26954;DHT22;14508;50.924;11.600;2022-10-31T10:03:56;14.70;99.90
26954;DHT22;14508;50.924;11.600;2022-10-31T10:06:54;14.80;99.90
26954;DHT22;14508;50.924;11.600;2022-10-31T10:09:46;14.90;99.90
26954;DHT22;14508;50.924;11.600;2022-10-31T10:15:39;15.20;99.90
26954;DHT22;14508;50.924;11.600;2022-10-31T10:18:17;15.40;99.90
26954;DHT22;14508;50.924;11.600;2022-10-31T10:20:59;15.50;99.90
26954;DHT22;14508;50.924;11.600;2022-10-31T10:23:46;15.60;99.90
26954;DHT22;14508;50.924;11.600;2022-10-31T10:26:20;15.70;99.90
26954;DHT22;14508;50.924;11.600;2022-10-31T10:28:49;15.90;99.90
26954;DHT22;14508;50.924;11.600;2022-10-31T10:31:21;16.00;99.90
26954;DHT22;14508;50.924;11.600;2022-10-31T10:33:58;16.10;99.90
26954;DHT22;14508;50.924;11.600;2022-10-31T10:36:32;16.10;99.90
26954;DHT22;14508;50.924;11.600;2022-10-31T10:39:03;16.20;99.90
26954;DHT22;14508;50.924;11.600;2022-10-31T10:41:33;16.30;99.90
26954;DHT22;14508;50.924;11.600;2022-10-31T10:43:59;16.40;99.90
26954;DHT22;14508;50.924;11.600;2022-10-31T10:46:33;16.40;99.90
26954;DHT22;14508;50.924;11.600;2022-10-31T10:49:25;16.50;99.90
26954;DHT22;14508;50.924;11.600;2022-10-31T10:51:58;16.60;99.90
26954;DHT22;14508;50.924;11.600;2022-10-31T10:54:50;16.70;99.90
26954;DHT22;14508;50.924;11.600;2022-10-31T10:57:42;16.70;99.90
26954;DHT22;14508;50.924;11.600;2022-10-31T11:00:21;16.80;99.90
26954;DHT22;14508;50.924;11.600;2022-10-31T11:02:48;16.90;99.90
26954;DHT22;14508;50.924;11.600;2022-10-31T11:05:23;17.00;99.90
26954;DHT22;14508;50.924;11.600;2022-10-31T11:07:50;17.10;99.90
26954;DHT22;14508;50.924;11.600;2022-10-31T11:10:17;17.20;99.90
26954;DHT22;14508;50.924;11.600;2022-10-31T11:12:58;17.30;99.90
26954;DHT22;14508;50.924;11.600;2022-10-31T11:15:27;17.40;99.90
26954;DHT22;14508;50.924;11.600;2022-10-31T11:17:56;17.50;99.90
26954;DHT22;14508;50.924;11.600;2022-10-31T11:20:26;17.60;99.90
26954;DHT22;14508;50.924;11.600;2022-10-31T11:23:02;17.60;99.90
26954;DHT22;14508;50.924;11.600;2022-10-31T11:25:29;17.70;99.90
26954;DHT22;14508;50.924;11.600;2022-10-31T11:28:02;17.70;99.90
26954;DHT22;14508;50.924;11.600;2022-10-31T11:30:30;17.80;99.90
26954;DHT22;14508;50.924;11.600;2022-10-31T11:32:58;17.90;99.90
26954;DHT22;14508;50.924;11.600;2022-10-31T11:35:25;18.00;99.90
26954;DHT22;14508;50.924;11.600;2022-10-31T11:37:54;18.20;99.90
26954;DHT22;14508;50.924;11.600;2022-10-31T11:40:25;18.30;99.90
26954;DHT22;14508;50.924;11.600;2022-10-31T11:42:55;18.40;99.90
26954;DHT22;14508;50.924;11.600;2022-10-31T11:45:31;18.50;99.90
26954;DHT22;14508;50.924;11.600;2022-10-31T11:48:00;18.60;99.90
26954;DHT22;14508;50.924;11.600;2022-10-31T11:50:34;18.60;99.90
26954;DHT22;14508;50.924;11.600;2022-10-31T11:53:02;18.70;99.90
26954;DHT22;14508;50.924;11.600;2022-10-31T11:55:32;18.70;99.90
26954;DHT22;14508;50.924;11.600;2022-10-31T11:57:59;18.70;99.90
26954;DHT22;14508;50.924;11.600;2022-10-31T12:00:30;18.80;99.90
26954;DHT22;14508;50.924;11.600;2022-10-31T12:06:06;18.90;99.90
26954;DHT22;14508;50.924;11.600;2022-10-31T12:08:35;19.00;99.70
26954;DHT22;14508;50.924;11.600;2022-10-31T12:11:08;19.00;99.40
26954;DHT22;14508;50.924;11.600;2022-10-31T12:13:39;19.00;99.40
26954;DHT22;14508;50.924;11.600;2022-10-31T12:16:20;19.00;99.10
26954;DHT22;14508;50.924;11.600;2022-10-31T12:18:58;18.90;99.20
26954;DHT22;14508;50.924;11.600;2022-10-31T12:21:39;19.00;99.70
26954;DHT22;14508;50.924;11.600;2022-10-31T12:24:17;19.00;99.90
26954;DHT22;14508;50.924;11.600;2022-10-31T12:26:51;19.00;99.60
26954;DHT22;14508;50.924;11.600;2022-10-31T12:29:29;19.10;99.40
26954;DHT22;14508;50.924;11.600;2022-10-31T12:32:13;19.10;99.30
26954;DHT22;14508;50.924;11.600;2022-10-31T12:34:52;19.10;99.40
26954;DHT22;14508;50.924;11.600;2022-10-31T12:37:31;19.10;99.20
26954;DHT22;14508;50.924;11.600;2022-10-31T12:40:15;19.20;99.40
26954;DHT22;14508;50.924;11.600;2022-10-31T12:42:56;19.20;99.80
26954;DHT22;14508;50.924;11.600;2022-10-31T12:45:49;19.20;99.90
26954;DHT22;14508;50.924;11.600;2022-10-31T12:48:55;19.20;99.90
26954;DHT22;14508;50.924;11.600;2022-10-31T12:51:32;19.20;99.90
26954;DHT22;14508;50.924;11.600;2022-10-31T12:54:17;19.30;99.90
26954;DHT22;14508;50.924;11.600;2022-10-31T12:56:55;19.30;99.90
26954;DHT22;14508;50.924;11.600;2022-10-31T12:59:29;19.30;99.90
26954;DHT22;14508;50.924;11.600;2022-10-31T13:02:02;19.20;99.90
26954;DHT22;14508;50.924;11.600;2022-10-31T13:04:42;19.10;99.90
26954;DHT22;14508;50.924;11.600;2022-10-31T13:07:13;19.10;99.90
26954;DHT22;14508;50.924;11.600;2022-10-31T13:09:46;19.10;99.90
26954;DHT22;14508;50.924;11.600;2022-10-31T13:12:17;19.10;99.90
26954;DHT22;14508;50.924;11.600;2022-10-31T13:14:48;19.10;99.90
26954;DHT22;14508;50.924;11.600;2022-10-31T13:17:22;19.10;99.90
26954;DHT22;14508;50.924;11.600;2022-10-31T13:19:55;19.10;99.90
26954;DHT22;14508;50.924;11.600;2022-10-31T13:22:27;19.10;99.90
26954;DHT22;14508;50.924;11.600;2022-10-31T13:25:02;19.10;99.90
26954;DHT22;14508;50.924;11.600;2022-10-31T13:27:34;19.10;99.90
26954;DHT22;14508;50.924;11.600;2022-10-31T13:30:13;19.10;99.90
26954;DHT22;14508;50.924;11.600;2022-10-31T13:32:43;19.10;99.90
26954;DHT22;14508;50.924;11.600;2022-10-31T13:35:16;19.10;99.90
26954;DHT22;14508;50.924;11.600;2022-10-31T13:37:49;19.10;99.90
26954;DHT22;14508;50.924;11.600;2022-10-31T13:40:34;19.10;99.90
26954;DHT22;14508;50.924;11.600;2022-10-31T13:43:09;19.10;99.90
26954;DHT22;14508;50.924;11.600;2022-10-31T13:45:48;19.10;99.90
26954;DHT22;14508;50.924;11.600;2022-10-31T13:48:36;19.10;99.90
26954;DHT22;14508;50.924;11.600;2022-10-31T13:51:07;19.10;99.90
26954;DHT22;14508;50.924;11.600;2022-10-31T13:53:37;19.00;99.90
26954;DHT22;14508;50.924;11.600;2022-10-31T13:56:16;19.10;99.90
26954;DHT22;14508;50.924;11.600;2022-10-31T13:59:04;19.00;99.90
26954;DHT22;14508;50.924;11.600;2022-10-31T14:01:33;19.00;99.90
26954;DHT22;14508;50.924;11.600;2022-10-31T14:04:04;19.00;99.90
26954;DHT22;14508;50.924;11.600;2022-10-31T14:06:38;19.00;99.90
26954;DHT22;14508;50.924;11.600;2022-10-31T14:09:15;19.00;99.90
26954;DHT22;14508;50.924;11.600;2022-10-31T14:11:46;19.00;99.90
26954;DHT22;14508;50.924;11.600;2022-10-31T14:14:14;18.90;99.90
26954;DHT22;14508;50.924;11.600;2022-10-31T14:16:43;18.90;99.90
26954;DHT22;14508;50.924;11.600;2022-10-31T14:19:15;18.90;99.90
26954;DHT22;14508;50.924;11.600;2022-10-31T14:21:47;18.90;99.90
26954;DHT22;14508;50.924;11.600;2022-10-31T14:24:16;18.80;99.90
26954;DHT22;14508;50.924;11.600;2022-10-31T14:26:58;18.80;99.90
26954;DHT22;14508;50.924;11.600;2022-10-31T14:29:27;18.80;99.90
26954;DHT22;14508;50.924;11.600;2022-10-31T14:32:03;18.70;99.90
26954;DHT22;14508;50.924;11.600;2022-10-31T14:34:38;18.70;99.90
26954;DHT22;14508;50.924;11.600;2022-10-31T14:37:35;18.60;99.90
26954;DHT22;14508;50.924;11.600;2022-10-31T14:40:14;18.60;99.90
26954;DHT22;14508;50.924;11.600;2022-10-31T14:45:51;18.50;99.90
26954;DHT22;14508;50.924;11.600;2022-10-31T14:48:41;18.40;99.90
26954;DHT22;14508;50.924;11.600;2022-10-31T14:51:13;18.30;99.90
26954;DHT22;14508;50.924;11.600;2022-10-31T14:53:47;18.20;99.90
26954;DHT22;14508;50.924;11.600;2022-10-31T14:56:20;18.10;99.90
26954;DHT22;14508;50.924;11.600;2022-10-31T14:58:48;18.00;99.90
26954;DHT22;14508;50.924;11.600;2022-10-31T15:01:25;17.90;99.90
26954;DHT22;14508;50.924;11.600;2022-10-31T15:03:55;17.80;99.90
26954;DHT22;14508;50.924;11.600;2022-10-31T15:06:24;17.70;99.90
26954;DHT22;14508;50.924;11.600;2022-10-31T15:08:54;17.60;99.90
26954;DHT22;14508;50.924;11.600;2022-10-31T15:11:23;17.50;99.90
26954;DHT22;14508;50.924;11.600;2022-10-31T15:13:51;17.40;99.90
26954;DHT22;14508;50.924;11.600;2022-10-31T15:16:34;17.30;99.90
26954;DHT22;14508;50.924;11.600;2022-10-31T15:19:03;17.20;99.90
26954;DHT22;14508;50.924;11.600;2022-10-31T15:21:31;17.10;99.90
26954;DHT22;14508;50.924;11.600;2022-10-31T15:24:01;16.90;99.90
26954;DHT22;14508;50.924;11.600;2022-10-31T15:26:31;16.90;99.90
26954;DHT22;14508;50.924;11.600;2022-10-31T15:29:00;16.70;99.90
26954;DHT22;14508;50.924;11.600;2022-10-31T15:31:28;16.70;99.90
26954;DHT22;14508;50.924;11.600;2022-10-31T15:33:59;16.60;99.90
26954;DHT22;14508;50.924;11.600;2022-10-31T15:36:26;16.40;99.90
26954;DHT22;14508;50.924;11.600;2022-10-31T15:38:55;16.40;99.90
26954;DHT22;14508;50.924;11.600;2022-10-31T15:41:35;16.30;99.90
26954;DHT22;14508;50.924;11.600;2022-10-31T15:44:10;16.20;99.90
26954;DHT22;14508;50.924;11.600;2022-10-31T15:46:40;16.10;99.90
26954;DHT22;14508;50.924;11.600;2022-10-31T15:49:25;16.00;99.90
26954;DHT22;14508;50.924;11.600;2022-10-31T15:51:53;15.90;99.90
26954;DHT22;14508;50.924;11.600;2022-10-31T15:54:20;15.80;99.90
26954;DHT22;14508;50.924;11.600;2022-10-31T15:56:48;15.70;99.90
26954;DHT22;14508;50.924;11.600;2022-10-31T15:59:20;15.60;99.90
26954;DHT22;14508;50.924;11.600;2022-10-31T16:01:59;15.50;99.90
26954;DHT22;14508;50.924;11.600;2022-10-31T16:04:26;15.40;99.90
26954;DHT22;14508;50.924;11.600;2022-10-31T16:06:59;15.40;99.90
26954;DHT22;14508;50.924;11.600;2022-10-31T16:09:27;15.30;99.90
26954;DHT22;14508;50.924;11.600;2022-10-31T16:11:56;15.20;99.90
26954;DHT22;14508;50.924;11.600;2022-10-31T16:14:27;15.10;99.90
26954;DHT22;14508;50.924;11.600;2022-10-31T16:16:57;15.00;99.90
26954;DHT22;14508;50.924;11.600;2022-10-31T16:19:26;15.00;99.90
26954;DHT22;14508;50.924;11.600;2022-10-31T16:22:01;14.90;99.90
26954;DHT22;14508;50.924;11.600;2022-10-31T16:24:29;14.90;99.90